Time;durP1;ratioP1;P1;durP2;ratioP2;P2;SDS_P1;SDS_P2;PMS_P1;PMS_P2;Temp;Humidity;BMP_temperature;BMP_pressure;BME280_temperature;BME280_humidity;BME280_pressure;Samples;Min_cycle;Max_cycle;Signal;HPM_P1;HPM_P2
2024/01/02 00:00:23;;;;;;;66.43;61.90;;;;;;;;;;5092584;28;20456;-77
2024/01/02 00:02:50;;;;;;;64.57;59.92;;;;;;;;;;5092084;28;20506;-80
2024/01/02 00:05:17;;;;;;;64.40;59.40;;;;;;;;;;5092844;28;20276;-78
2024/01/02 00:07:44;;;;;;;68.23;62.53;;;;;;;;;;5091561;28;21061;-78
2024/01/02 00:10:11;;;;;;;63.30;58.90;;;;;;;;;;5092464;28;20441;-77
2024/01/02 00:12:38;;;;;;;63.17;59.37;;;;;;;;;;5092152;28;20445;-77
2024/01/02 00:15:06;;;;;;;67.10;62.37;;;;;;;;;;5092678;28;20435;-77
2024/01/02 00:17:34;;;;;;;64.27;60.43;;;;;;;;;;5091466;28;20550;-77
2024/01/02 00:20:02;;;;;;;67.82;63.00;;;;;;;;;;5092572;28;20415;-78
2024/01/02 00:22:29;;;;;;;65.23;61.40;;;;;;;;;;5091463;28;20207;-78
2024/01/02 00:24:56;;;;;;;62.78;58.97;;;;;;;;;;5092141;28;20847;-77
2024/01/02 00:27:23;;;;;;;62.33;58.17;;;;;;;;;;5091975;28;20231;-78
2024/01/02 00:29:50;;;;;;;59.33;55.73;;;;;;;;;;5092226;28;20203;-77
2024/01/02 00:32:17;;;;;;;62.23;58.03;;;;;;;;;;5091109;28;20445;-77
2024/01/02 00:34:45;;;;;;;62.05;57.80;;;;;;;;;;5091580;28;20433;-78
2024/01/02 00:37:12;;;;;;;59.90;56.33;;;;;;;;;;5091540;28;20758;-78
2024/01/02 00:39:40;;;;;;;57.60;54.10;;;;;;;;;;5091899;28;20449;-77
2024/01/02 00:42:07;;;;;;;59.63;55.67;;;;;;;;;;5091555;28;20441;-77
2024/01/02 00:44:34;;;;;;;55.67;51.77;;;;;;;;;;5091946;28;20236;-78
2024/01/02 00:47:00;;;;;;;62.13;57.93;;;;;;;;;;5091819;28;21036;-77
2024/01/02 00:49:27;;;;;;;59.53;55.57;;;;;;;;;;5091578;28;20945;-77
2024/01/02 00:51:56;;;;;;;58.10;54.30;;;;;;;;;;5098195;28;20477;-77
2024/01/02 00:54:23;;;;;;;54.77;51.47;;;;;;;;;;5092486;28;20457;-77
2024/01/02 00:56:50;;;;;;;58.00;54.37;;;;;;;;;;5092577;28;20443;-77
2024/01/02 00:59:17;;;;;;;55.47;51.67;;;;;;;;;;5091560;28;20449;-77
2024/01/02 01:01:44;;;;;;;54.05;50.50;;;;;;;;;;5091312;28;20451;-77
2024/01/02 01:04:11;;;;;;;51.58;48.47;;;;;;;;;;5091526;28;20317;-77
2024/01/02 01:06:38;;;;;;;53.77;50.27;;;;;;;;;;5090595;28;20231;-77
2024/01/02 01:09:06;;;;;;;54.57;50.77;;;;;;;;;;5091247;28;20515;-78
2024/01/02 01:11:33;;;;;;;52.73;48.97;;;;;;;;;;5090573;28;21258;-77
2024/01/02 01:14:00;;;;;;;50.80;47.20;;;;;;;;;;5090830;28;20936;-77
2024/01/02 01:16:27;;;;;;;47.83;44.80;;;;;;;;;;5091471;28;20875;-78
2024/01/02 01:18:54;;;;;;;48.63;45.75;;;;;;;;;;5090425;28;20532;-77
2024/01/02 01:21:21;;;;;;;49.53;46.37;;;;;;;;;;5090400;28;20829;-77
2024/01/02 01:23:48;;;;;;;43.93;40.77;;;;;;;;;;5090645;28;20491;-77
2024/01/02 01:26:16;;;;;;;40.03;37.63;;;;;;;;;;5083409;28;20428;-78
2024/01/02 01:28:43;;;;;;;42.40;39.70;;;;;;;;;;5070962;28;20477;-77
2024/01/02 01:31:10;;;;;;;39.70;37.13;;;;;;;;;;5070463;28;20472;-77
2024/01/02 01:33:37;;;;;;;39.87;36.87;;;;;;;;;;5071114;28;20445;-77
2024/01/02 01:36:05;;;;;;;39.17;36.30;;;;;;;;;;5070890;28;20447;-77
2024/01/02 01:38:32;;;;;;;37.47;35.07;;;;;;;;;;5070115;28;20436;-77
2024/01/02 01:40:59;;;;;;;38.53;35.97;;;;;;;;;;5070496;28;20484;-77
2024/01/02 01:43:27;;;;;;;34.23;31.80;;;;;;;;;;5070756;28;20420;-77
2024/01/02 01:45:54;;;;;;;37.23;34.60;;;;;;;;;;5070944;28;20450;-77
2024/01/02 01:48:22;;;;;;;36.53;34.53;;;;;;;;;;5069713;28;20482;-77
2024/01/02 01:50:49;;;;;;;37.57;34.97;;;;;;;;;;5069986;28;21169;-77
2024/01/02 01:53:17;;;;;;;35.20;32.80;;;;;;;;;;5070823;28;20476;-77
2024/01/02 01:55:44;;;;;;;35.83;33.83;;;;;;;;;;5070503;28;20445;-77
2024/01/02 01:58:12;;;;;;;38.00;35.70;;;;;;;;;;5070060;28;20953;-77
2024/01/02 02:00:40;;;;;;;36.50;34.17;;;;;;;;;;5070065;28;20449;-77
2024/01/02 02:03:07;;;;;;;35.87;33.60;;;;;;;;;;5070348;28;20922;-78
2024/01/02 02:05:34;;;;;;;36.27;34.07;;;;;;;;;;5070577;28;20507;-78
2024/01/02 02:08:01;;;;;;;35.83;33.80;;;;;;;;;;5070167;28;20539;-77
2024/01/02 02:10:28;;;;;;;33.80;31.88;;;;;;;;;;5069816;28;20446;-78
2024/01/02 02:12:54;;;;;;;37.40;34.97;;;;;;;;;;5070068;28;20214;-77
2024/01/02 02:15:21;;;;;;;34.70;32.70;;;;;;;;;;5069967;28;20449;-77
2024/01/02 02:17:49;;;;;;;35.78;33.58;;;;;;;;;;5070232;28;21220;-78
2024/01/02 02:20:16;;;;;;;33.07;30.33;;;;;;;;;;5070012;28;20567;-78
2024/01/02 02:22:50;;;;;;;33.35;31.27;;;;;;;;;;5069839;28;20428;-78
2024/01/02 02:25:17;;;;;;;32.10;30.30;;;;;;;;;;5069634;28;20206;-77
2024/01/02 02:27:45;;;;;;;31.73;29.73;;;;;;;;;;5069904;28;20489;-77
2024/01/02 02:30:12;;;;;;;32.13;30.40;;;;;;;;;;5073063;28;20449;-77
2024/01/02 02:32:39;;;;;;;28.90;27.40;;;;;;;;;;5075943;28;20296;-77
2024/01/02 02:35:06;;;;;;;31.30;29.53;;;;;;;;;;5076516;28;20511;-77
2024/01/02 02:37:33;;;;;;;30.87;28.87;;;;;;;;;;5076358;28;20469;-77
2024/01/02 02:40:03;;;;;;;29.60;27.80;;;;;;;;;;5075997;28;21015;-77
2024/01/02 02:42:30;;;;;;;30.43;28.70;;;;;;;;;;5075454;28;20464;-77
2024/01/02 02:44:57;;;;;;;28.60;27.00;;;;;;;;;;5076271;28;20453;-77
2024/01/02 02:47:24;;;;;;;30.27;28.38;;;;;;;;;;5076261;28;20523;-77
2024/01/02 02:49:52;;;;;;;31.10;28.97;;;;;;;;;;5076496;28;20207;-77
2024/01/02 02:52:19;;;;;;;28.13;26.43;;;;;;;;;;5075459;28;20445;-78
2024/01/02 02:54:46;;;;;;;29.03;27.13;;;;;;;;;;5076248;28;20464;-77
2024/01/02 02:57:14;;;;;;;27.73;26.08;;;;;;;;;;5076086;28;20469;-77
2024/01/02 02:59:41;;;;;;;28.27;26.13;;;;;;;;;;5094961;28;20206;-77
2024/01/02 03:02:08;;;;;;;27.00;25.40;;;;;;;;;;5096206;28;20449;-77
2024/01/02 03:04:35;;;;;;;26.80;24.97;;;;;;;;;;5097067;28;20478;-77
2024/01/02 03:07:02;;;;;;;26.87;25.40;;;;;;;;;;5096579;28;20457;-77
2024/01/02 03:09:29;;;;;;;27.50;25.53;;;;;;;;;;5096499;28;20455;-77
2024/01/02 03:11:56;;;;;;;26.50;25.00;;;;;;;;;;5096027;28;20498;-78
2024/01/02 03:14:25;;;;;;;27.17;25.53;;;;;;;;;;5096740;28;20423;-77
2024/01/02 03:16:52;;;;;;;27.53;25.63;;;;;;;;;;5095741;28;20446;-77
2024/01/02 03:19:19;;;;;;;27.70;26.10;;;;;;;;;;5096620;28;20430;-77
2024/01/02 03:21:46;;;;;;;26.10;24.80;;;;;;;;;;5095579;28;20915;-77
2024/01/02 03:24:13;;;;;;;26.70;24.93;;;;;;;;;;5096506;28;20210;-77
2024/01/02 03:26:40;;;;;;;26.97;25.37;;;;;;;;;;5095884;28;20906;-78
2024/01/02 03:29:07;;;;;;;25.90;24.50;;;;;;;;;;5096549;28;20484;-78
2024/01/02 03:31:35;;;;;;;26.10;24.70;;;;;;;;;;5095897;28;20202;-77
2024/01/02 03:34:02;;;;;;;28.73;27.07;;;;;;;;;;5096238;28;20484;-77
2024/01/02 03:36:29;;;;;;;29.55;27.25;;;;;;;;;;5096031;28;20443;-77
2024/01/02 03:38:56;;;;;;;26.23;24.90;;;;;;;;;;5096019;28;20251;-77
2024/01/02 03:41:23;;;;;;;27.17;25.75;;;;;;;;;;5093544;28;20475;-77
2024/01/02 03:43:50;;;;;;;27.37;25.87;;;;;;;;;;5092843;28;20211;-77
2024/01/02 03:46:17;;;;;;;26.70;25.15;;;;;;;;;;5093086;28;20510;-77
2024/01/02 03:48:45;;;;;;;27.00;25.53;;;;;;;;;;5093131;28;20218;-78
2024/01/02 03:51:12;;;;;;;27.50;26.07;;;;;;;;;;5092476;28;20449;-77
2024/01/02 03:53:39;;;;;;;25.77;24.47;;;;;;;;;;5093105;28;20441;-77
2024/01/02 03:56:07;;;;;;;26.43;25.07;;;;;;;;;;5092937;28;20440;-77
2024/01/02 03:58:34;;;;;;;27.20;25.70;;;;;;;;;;5092812;28;20490;-77
2024/01/02 04:01:01;;;;;;;26.90;25.33;;;;;;;;;;5092408;28;20478;-78
2024/01/02 04:03:27;;;;;;;26.57;24.87;;;;;;;;;;5093067;28;20419;-77
2024/01/02 04:05:56;;;;;;;27.37;25.97;;;;;;;;;;5092901;28;20849;-77
2024/01/02 04:08:23;;;;;;;27.40;25.70;;;;;;;;;;5092302;28;20488;-78
2024/01/02 04:10:50;;;;;;;27.30;25.90;;;;;;;;;;5091870;28;20419;-78
2024/01/02 04:13:17;;;;;;;24.80;23.50;;;;;;;;;;5091487;28;20522;-77
2024/01/02 04:15:44;;;;;;;26.83;25.43;;;;;;;;;;5092447;28;20502;-78
2024/01/02 04:18:11;;;;;;;26.77;25.05;;;;;;;;;;5092435;28;20465;-77
2024/01/02 04:20:38;;;;;;;27.70;26.17;;;;;;;;;;5091756;28;20202;-77
2024/01/02 04:23:07;;;;;;;26.27;24.90;;;;;;;;;;5092794;28;20851;-78
2024/01/02 04:25:34;;;;;;;27.90;26.50;;;;;;;;;;5096775;28;20445;-76
2024/01/02 04:28:01;;;;;;;28.10;26.70;;;;;;;;;;5100507;28;20465;-77
2024/01/02 04:30:28;;;;;;;29.35;27.85;;;;;;;;;;5092832;28;20510;-78
2024/01/02 04:32:54;;;;;;;28.08;26.67;;;;;;;;;;5092115;28;20202;-78
2024/01/02 04:35:21;;;;;;;29.00;27.40;;;;;;;;;;5091827;28;20236;-77
2024/01/02 04:37:49;;;;;;;26.33;24.95;;;;;;;;;;5091520;28;21243;-77
2024/01/02 04:40:17;;;;;;;28.63;26.80;;;;;;;;;;5091687;28;20206;-77
2024/01/02 04:42:44;;;;;;;27.07;25.37;;;;;;;;;;5091616;28;20448;-77
2024/01/02 04:45:11;;;;;;;27.05;25.75;;;;;;;;;;5091842;28;20449;-77
2024/01/02 04:47:38;;;;;;;27.40;26.00;;;;;;;;;;5091845;28;20218;-77
2024/01/02 04:50:06;;;;;;;28.50;27.00;;;;;;;;;;5092213;28;20481;-77
2024/01/02 04:52:32;;;;;;;26.70;25.40;;;;;;;;;;5091178;28;20477;-77
2024/01/02 04:55:00;;;;;;;26.88;25.52;;;;;;;;;;5091964;28;20206;-78
2024/01/02 04:57:29;;;;;;;28.33;26.63;;;;;;;;;;5091245;28;20215;-77
2024/01/02 04:59:56;;;;;;;27.77;26.27;;;;;;;;;;5091895;28;20445;-78
2024/01/02 05:02:24;;;;;;;29.53;28.10;;;;;;;;;;5091584;28;20473;-78
2024/01/02 05:04:51;;;;;;;28.30;26.80;;;;;;;;;;5091820;28;20432;-77
2024/01/02 05:07:18;;;;;;;29.95;28.45;;;;;;;;;;5089997;28;20468;-78
2024/01/02 05:09:45;;;;;;;29.67;27.90;;;;;;;;;;5082475;28;20215;-77
2024/01/02 05:12:12;;;;;;;28.40;26.90;;;;;;;;;;5070460;28;20511;-77
2024/01/02 05:14:40;;;;;;;30.20;28.50;;;;;;;;;;5071350;28;20207;-78
2024/01/02 05:17:08;;;;;;;29.30;27.80;;;;;;;;;;5070461;28;21055;-78
2024/01/02 05:19:35;;;;;;;28.90;27.40;;;;;;;;;;5071378;28;20417;-77
2024/01/02 05:22:03;;;;;;;28.88;26.95;;;;;;;;;;5070434;28;20438;-77
2024/01/02 05:24:30;;;;;;;29.35;27.75;;;;;;;;;;5070959;28;20214;-77
2024/01/02 05:26:57;;;;;;;28.33;26.93;;;;;;;;;;5070660;28;20231;-77
2024/01/02 05:29:24;;;;;;;30.02;28.52;;;;;;;;;;5070559;28;20482;-78
2024/01/02 05:31:53;;;;;;;28.20;26.80;;;;;;;;;;5070288;28;20247;-77
2024/01/02 05:34:20;;;;;;;28.57;27.20;;;;;;;;;;5070698;28;20470;-77
2024/01/02 05:36:47;;;;;;;29.27;27.87;;;;;;;;;;5070624;28;20524;-77
2024/01/02 05:39:14;;;;;;;28.55;26.83;;;;;;;;;;5070342;28;20442;-78
2024/01/02 05:41:41;;;;;;;27.33;25.93;;;;;;;;;;5069114;28;20722;-78
2024/01/02 05:44:08;;;;;;;28.85;27.35;;;;;;;;;;5070676;28;20495;-77
2024/01/02 05:46:35;;;;;;;29.23;27.63;;;;;;;;;;5081294;28;20234;-77
2024/01/02 05:49:03;;;;;;;29.70;28.30;;;;;;;;;;5090330;28;20534;-77
2024/01/02 05:51:30;;;;;;;30.27;28.75;;;;;;;;;;5089991;28;20465;-77
2024/01/02 05:53:57;;;;;;;34.33;32.60;;;;;;;;;;5090656;28;20203;-77
2024/01/02 05:56:24;;;;;;;32.77;31.17;;;;;;;;;;5072550;28;20470;-77
2024/01/02 05:58:51;;;;;;;30.30;28.77;;;;;;;;;;5070691;28;20450;-77
2024/01/02 06:01:18;;;;;;;30.60;29.10;;;;;;;;;;5072591;28;20195;-78
2024/01/02 06:03:45;;;;;;;31.27;29.77;;;;;;;;;;5090940;28;20487;-78
2024/01/02 06:06:14;;;;;;;33.35;31.30;;;;;;;;;;5090243;28;20456;-78
2024/01/02 06:08:42;;;;;;;32.43;30.83;;;;;;;;;;5070833;28;20280;-77
2024/01/02 06:11:10;;;;;;;30.75;29.25;;;;;;;;;;5070098;28;20522;-78
2024/01/02 06:13:37;;;;;;;34.00;32.40;;;;;;;;;;5070457;28;20663;-77
2024/01/02 06:16:04;;;;;;;33.65;31.85;;;;;;;;;;5083379;28;20208;-79
2024/01/02 06:18:31;;;;;;;37.10;34.90;;;;;;;;;;5088800;28;20209;-78
2024/01/02 06:20:58;;;;;;;33.17;31.57;;;;;;;;;;5090257;28;20453;-78
2024/01/02 06:23:27;;;;;;;33.20;31.50;;;;;;;;;;5090829;28;20455;-77
2024/01/02 06:25:54;;;;;;;33.70;32.00;;;;;;;;;;5090403;28;20612;-78
2024/01/02 06:28:21;;;;;;;33.42;31.80;;;;;;;;;;5090271;28;21027;-77
2024/01/02 06:30:48;;;;;;;34.38;32.67;;;;;;;;;;5089946;28;20315;-77
2024/01/02 06:33:15;;;;;;;32.27;30.67;;;;;;;;;;5090319;28;20230;-77
2024/01/02 06:35:42;;;;;;;32.17;30.67;;;;;;;;;;5090521;28;20522;-77
2024/01/02 06:38:09;;;;;;;32.70;31.10;;;;;;;;;;5090417;28;20590;-77
2024/01/02 06:40:39;;;;;;;32.22;30.63;;;;;;;;;;5075610;28;20476;-78
2024/01/02 06:43:06;;;;;;;32.40;30.70;;;;;;;;;;5070122;28;20659;-75
2024/01/02 06:45:33;;;;;;;32.08;30.48;;;;;;;;;;5070826;28;20453;-77
2024/01/02 06:48:00;;;;;;;32.00;30.40;;;;;;;;;;5073020;28;20268;-77
2024/01/02 06:50:27;;;;;;;33.53;31.92;;;;;;;;;;5089802;28;20682;-78
2024/01/02 06:52:54;;;;;;;32.83;31.23;;;;;;;;;;5090023;28;20233;-78
2024/01/02 06:55:21;;;;;;;32.80;31.20;;;;;;;;;;5089626;28;20732;-78
2024/01/02 06:57:49;;;;;;;33.23;31.63;;;;;;;;;;5090343;28;20444;-77
2024/01/02 07:00:17;;;;;;;36.07;34.27;;;;;;;;;;5090181;28;20423;-77
2024/01/02 07:02:44;;;;;;;36.72;34.83;;;;;;;;;;5089709;28;20492;-77
2024/01/02 07:05:14;;;;;;;35.53;33.60;;;;;;;;;;5090538;28;20206;-77
2024/01/02 07:07:41;;;;;;;35.20;33.50;;;;;;;;;;5089903;28;20477;-77
2024/01/02 07:10:09;;;;;;;37.97;36.17;;;;;;;;;;5089922;28;20488;-78
2024/01/02 07:12:36;;;;;;;37.57;35.70;;;;;;;;;;5089415;28;20495;-77
2024/01/02 07:15:05;;;;;;;36.50;34.70;;;;;;;;;;5089761;28;21110;-77
2024/01/02 07:17:32;;;;;;;34.63;32.90;;;;;;;;;;5092180;28;20466;-78
2024/01/02 07:19:59;;;;;;;35.73;34.03;;;;;;;;;;5093965;28;20729;-78
2024/01/02 07:22:27;;;;;;;34.67;32.93;;;;;;;;;;5093359;28;21054;-77
2024/01/02 07:24:54;;;;;;;36.13;34.20;;;;;;;;;;5093456;28;20424;-78
2024/01/02 07:27:21;;;;;;;39.40;37.50;;;;;;;;;;5093795;28;20469;-78
2024/01/02 07:29:48;;;;;;;37.40;35.43;;;;;;;;;;5093828;28;20507;-78
2024/01/02 07:32:17;;;;;;;38.92;36.55;;;;;;;;;;5092896;28;20411;-77
2024/01/02 07:34:43;;;;;;;41.03;38.73;;;;;;;;;;5093365;28;20203;-77
2024/01/02 07:37:11;;;;;;;40.53;38.50;;;;;;;;;;5093388;28;20439;-77
2024/01/02 07:39:38;;;;;;;42.00;40.00;;;;;;;;;;5093550;28;20448;-78
2024/01/02 07:42:08;;;;;;;39.63;37.57;;;;;;;;;;5092820;28;20281;-77
2024/01/02 07:44:35;;;;;;;39.90;37.73;;;;;;;;;;5093452;28;20427;-78
2024/01/02 07:47:02;;;;;;;43.03;40.83;;;;;;;;;;5092762;28;21016;-77
2024/01/02 07:49:30;;;;;;;40.70;38.67;;;;;;;;;;5093020;28;21338;-78
2024/01/02 07:51:57;;;;;;;45.40;43.17;;;;;;;;;;5092683;28;20494;-77
2024/01/02 07:54:24;;;;;;;45.37;43.17;;;;;;;;;;5092975;28;20449;-78
2024/01/02 07:56:51;;;;;;;44.60;42.35;;;;;;;;;;5093605;28;20461;-78
2024/01/02 07:59:20;;;;;;;44.07;41.87;;;;;;;;;;5073580;28;20212;-77
2024/01/02 08:01:47;;;;;;;43.83;41.60;;;;;;;;;;5071731;28;20960;-77
2024/01/02 08:04:14;;;;;;;45.03;42.83;;;;;;;;;;5072852;28;20446;-77
2024/01/02 08:06:43;;;;;;;50.03;47.20;;;;;;;;;;5072367;28;20539;-77
2024/01/02 08:09:10;;;;;;;46.67;44.08;;;;;;;;;;5072324;28;20480;-77
2024/01/02 08:11:38;;;;;;;45.23;42.93;;;;;;;;;;5070522;28;20204;-77
2024/01/02 08:14:05;;;;;;;43.20;41.07;;;;;;;;;;5072595;28;20484;-78
2024/01/02 08:16:32;;;;;;;45.83;43.63;;;;;;;;;;5072308;28;20457;-79
2024/01/02 08:18:59;;;;;;;49.07;46.60;;;;;;;;;;5072724;28;20458;-77
2024/01/02 08:21:27;;;;;;;45.77;43.07;;;;;;;;;;5071965;28;20451;-78
2024/01/02 08:23:55;;;;;;;46.60;44.17;;;;;;;;;;5081031;28;20473;-78
2024/01/02 08:26:22;;;;;;;46.57;44.17;;;;;;;;;;5092140;28;20445;-77
2024/01/02 08:28:49;;;;;;;43.07;40.73;;;;;;;;;;5091447;28;20453;-79
2024/01/02 08:31:16;;;;;;;43.80;41.50;;;;;;;;;;5083689;28;20491;-78
2024/01/02 08:33:43;;;;;;;42.90;40.70;;;;;;;;;;5080732;28;20620;-77
2024/01/02 08:36:11;;;;;;;43.00;40.70;;;;;;;;;;5090430;28;20423;-78
2024/01/02 08:38:38;;;;;;;44.83;42.30;;;;;;;;;;5091233;28;20481;-77
2024/01/02 08:41:06;;;;;;;45.57;43.00;;;;;;;;;;5083781;28;20446;-78
2024/01/02 08:43:33;;;;;;;38.60;36.50;;;;;;;;;;5085236;28;20477;-77
2024/01/02 08:46:00;;;;;;;40.10;37.80;;;;;;;;;;5090098;28;20473;-77
2024/01/02 08:48:27;;;;;;;40.23;38.03;;;;;;;;;;5090927;28;20451;-78
2024/01/02 08:50:54;;;;;;;38.83;36.73;;;;;;;;;;5084677;28;21327;-77
2024/01/02 08:53:21;;;;;;;42.22;39.83;;;;;;;;;;5087007;28;20856;-77
2024/01/02 08:55:48;;;;;;;42.17;39.77;;;;;;;;;;5085339;28;20339;-77
2024/01/02 08:58:17;;;;;;;39.37;37.17;;;;;;;;;;5088116;28;20493;-77
2024/01/02 09:00:44;;;;;;;38.53;36.33;;;;;;;;;;5086197;28;20461;-77
2024/01/02 09:03:11;;;;;;;39.13;37.03;;;;;;;;;;5086548;28;20428;-77
2024/01/02 09:05:38;;;;;;;37.13;35.10;;;;;;;;;;5086548;28;20214;-77
2024/01/02 09:08:05;;;;;;;38.07;35.93;;;;;;;;;;5088779;28;20463;-77
2024/01/02 09:10:32;;;;;;;39.67;37.47;;;;;;;;;;5083567;28;20511;-77
2024/01/02 09:12:59;;;;;;;38.77;36.67;;;;;;;;;;5088557;28;20446;-77
2024/01/02 09:15:27;;;;;;;41.67;39.47;;;;;;;;;;5084024;28;20503;-77
2024/01/02 09:17:54;;;;;;;36.77;34.77;;;;;;;;;;5085752;28;20558;-77
2024/01/02 09:20:21;;;;;;;37.83;35.73;;;;;;;;;;5090750;28;20888;-77
2024/01/02 09:22:48;;;;;;;38.30;36.10;;;;;;;;;;5091144;28;20461;-77
2024/01/02 09:25:17;;;;;;;37.03;34.93;;;;;;;;;;5088279;28;20516;-77
2024/01/02 09:27:45;;;;;;;38.07;35.90;;;;;;;;;;5071335;28;20777;-77
2024/01/02 09:30:14;;;;;;;39.67;37.30;;;;;;;;;;5071123;28;20858;-77
2024/01/02 09:32:43;;;;;;;38.17;35.87;;;;;;;;;;5070952;28;20516;-79
2024/01/02 09:35:10;;;;;;;37.67;35.43;;;;;;;;;;5071269;28;20988;-77
2024/01/02 09:37:38;;;;;;;37.43;35.33;;;;;;;;;;5070978;28;20466;-77
2024/01/02 09:40:12;;;;;;;38.20;35.90;;;;;;;;;;5070340;28;20422;-81
2024/01/02 09:42:42;;;;;;;37.43;35.13;;;;;;;;;;5070455;28;20539;-76
2024/01/02 09:45:13;;;;;;;42.50;39.80;;;;;;;;;;5070822;28;20488;-77
2024/01/02 09:47:51;;;;;;;41.57;39.07;;;;;;;;;;5071048;28;20461;-77
2024/01/02 09:50:22;;;;;;;38.77;36.43;;;;;;;;;;5070881;28;21293;-77
2024/01/02 09:52:58;;;;;;;39.97;37.67;;;;;;;;;;5070534;28;20456;-77
2024/01/02 09:55:31;;;;;;;39.00;36.60;;;;;;;;;;5070947;28;20817;-76
2024/01/02 09:58:04;;;;;;;41.23;38.60;;;;;;;;;;5069817;28;20482;-76
2024/01/02 10:00:36;;;;;;;41.03;38.23;;;;;;;;;;5070191;28;20461;-77
2024/01/02 10:03:24;;;;;;;41.20;38.40;;;;;;;;;;5069872;28;20843;-77
2024/01/02 10:06:00;;;;;;;38.60;36.00;;;;;;;;;;5066997;28;20442;-77
2024/01/02 10:08:40;;;;;;;36.37;34.00;;;;;;;;;;5070229;28;20487;-77
2024/01/02 10:11:11;;;;;;;39.93;37.33;;;;;;;;;;5069742;28;20984;-77
2024/01/02 10:13:45;;;;;;;40.93;38.33;;;;;;;;;;5070521;28;20947;-77
2024/01/02 10:16:18;;;;;;;39.30;36.80;;;;;;;;;;5070111;28;20445;-77
2024/01/02 10:18:51;;;;;;;35.93;33.73;;;;;;;;;;5070374;28;20430;-77
2024/01/02 10:21:25;;;;;;;41.23;38.53;;;;;;;;;;5069421;28;20428;-77
2024/01/02 10:23:56;;;;;;;40.97;38.27;;;;;;;;;;5070349;28;20476;-77
2024/01/02 10:26:23;;;;;;;37.70;35.50;;;;;;;;;;5070611;28;20430;-77
2024/01/02 10:28:51;;;;;;;40.80;38.10;;;;;;;;;;5070592;28;20450;-77
2024/01/02 10:31:25;;;;;;;38.10;35.63;;;;;;;;;;5069943;28;20486;-77
2024/01/02 10:33:55;;;;;;;40.73;37.80;;;;;;;;;;5070689;28;20445;-77
2024/01/02 10:36:24;;;;;;;38.40;35.70;;;;;;;;;;5070260;28;20453;-76
2024/01/02 10:38:56;;;;;;;43.37;40.00;;;;;;;;;;5070275;28;20813;-77
2024/01/02 10:41:27;;;;;;;40.13;37.47;;;;;;;;;;5069854;28;20483;-77
2024/01/02 10:44:00;;;;;;;39.33;36.70;;;;;;;;;;5070281;28;20434;-77
2024/01/02 10:46:31;;;;;;;41.13;37.90;;;;;;;;;;5083376;28;20984;-77
2024/01/02 10:49:05;;;;;;;39.47;36.63;;;;;;;;;;5092793;28;20456;-82
2024/01/02 10:51:37;;;;;;;46.13;42.17;;;;;;;;;;5083832;28;20508;-82
2024/01/02 10:54:05;;;;;;;43.03;39.80;;;;;;;;;;5080740;28;20438;-82
2024/01/02 10:56:37;;;;;;;42.03;39.00;;;;;;;;;;5082748;28;20467;-82
2024/01/02 10:59:09;;;;;;;40.40;37.40;;;;;;;;;;5096512;28;20438;-82
2024/01/02 11:01:38;;;;;;;40.50;37.50;;;;;;;;;;5079713;28;20409;-79
2024/01/02 11:04:08;;;;;;;42.33;39.13;;;;;;;;;;5075898;28;20442;-78
2024/01/02 11:06:45;;;;;;;42.47;38.90;;;;;;;;;;5074864;28;20466;-77
2024/01/02 11:09:13;;;;;;;40.90;37.90;;;;;;;;;;5095800;28;20452;-81
2024/01/02 11:11:42;;;;;;;40.53;37.53;;;;;;;;;;5099176;28;20561;-82
2024/01/02 11:14:11;;;;;;;40.70;37.80;;;;;;;;;;5096707;28;20518;-77
2024/01/02 11:16:41;;;;;;;40.67;37.60;;;;;;;;;;5092686;28;20498;-77
2024/01/02 11:19:08;;;;;;;38.30;35.50;;;;;;;;;;5082966;28;20475;-77
2024/01/02 11:21:41;;;;;;;38.63;35.37;;;;;;;;;;5074806;28;20911;-83
2024/01/02 11:24:09;;;;;;;37.87;35.00;;;;;;;;;;5079070;28;20606;-75
2024/01/02 11:26:40;;;;;;;43.03;39.53;;;;;;;;;;5073928;28;20835;-77
2024/01/02 11:29:09;;;;;;;39.57;36.87;;;;;;;;;;5073708;28;20453;-77
2024/01/02 11:31:37;;;;;;;40.80;37.80;;;;;;;;;;5071577;28;20489;-77
2024/01/02 11:34:17;;;;;;;40.80;37.80;;;;;;;;;;5073320;28;21221;-77
2024/01/02 11:36:53;;;;;;;39.20;35.60;;;;;;;;;;5073017;28;21262;-77
2024/01/02 11:39:24;;;;;;;38.80;36.07;;;;;;;;;;5073481;28;20444;-77
2024/01/02 11:41:58;;;;;;;37.67;35.07;;;;;;;;;;5072792;28;20430;-77
2024/01/02 11:44:30;;;;;;;35.53;33.13;;;;;;;;;;5073322;28;20434;-77
2024/01/02 11:47:02;;;;;;;36.03;33.47;;;;;;;;;;5073216;28;20511;-77
2024/01/02 11:49:30;;;;;;;37.93;35.33;;;;;;;;;;5073372;28;20499;-77
2024/01/02 11:52:01;;;;;;;36.27;33.87;;;;;;;;;;5080036;28;21020;-77
2024/01/02 11:54:35;;;;;;;36.67;34.23;;;;;;;;;;5077902;28;20434;-82
2024/01/02 11:57:03;;;;;;;36.20;33.80;;;;;;;;;;5080399;28;20495;-82
2024/01/02 11:59:38;;;;;;;36.37;34.07;;;;;;;;;;5075847;28;20445;-85
2024/01/02 12:02:09;;;;;;;35.67;33.47;;;;;;;;;;5080621;28;20452;-80
2024/01/02 12:04:49;;;;;;;35.30;32.67;;;;;;;;;;5080333;28;20442;-83
2024/01/02 12:07:23;;;;;;;32.33;30.43;;;;;;;;;;5075927;28;20521;-77
2024/01/02 12:09:50;;;;;;;34.87;32.67;;;;;;;;;;5090982;28;20967;-79
2024/01/02 12:12:27;;;;;;;35.60;33.33;;;;;;;;;;5093304;28;20954;-78
2024/01/02 12:14:59;;;;;;;34.97;32.77;;;;;;;;;;5094449;28;20468;-78
2024/01/02 12:17:30;;;;;;;34.47;32.37;;;;;;;;;;5095995;28;20453;-79
2024/01/02 12:20:04;;;;;;;33.67;31.67;;;;;;;;;;5093619;28;20540;-75
2024/01/02 12:22:34;;;;;;;34.30;32.23;;;;;;;;;;5092440;28;20421;-75
2024/01/02 12:25:02;;;;;;;32.60;30.70;;;;;;;;;;5092677;28;20490;-76
2024/01/02 12:27:29;;;;;;;37.77;35.27;;;;;;;;;;5092836;28;20461;-81
2024/01/02 12:29:58;;;;;;;34.97;32.90;;;;;;;;;;5100534;28;20453;-81
2024/01/02 12:32:33;;;;;;;34.60;32.33;;;;;;;;;;5100074;28;20571;-81
2024/01/02 12:35:03;;;;;;;33.53;31.63;;;;;;;;;;5100619;28;20517;-81
2024/01/02 12:37:37;;;;;;;32.63;30.73;;;;;;;;;;5100854;28;20456;-81
2024/01/02 12:40:10;;;;;;;33.70;31.60;;;;;;;;;;5101445;28;20436;-81
2024/01/02 12:42:38;;;;;;;31.87;29.97;;;;;;;;;;5100537;28;20950;-81
2024/01/02 12:45:07;;;;;;;33.07;31.17;;;;;;;;;;5100653;28;20448;-80
2024/01/02 12:47:40;;;;;;;36.80;34.50;;;;;;;;;;5100564;28;20457;-80
2024/01/02 12:50:07;;;;;;;35.00;32.90;;;;;;;;;;5092465;28;20821;-77
2024/01/02 12:52:38;;;;;;;35.57;33.37;;;;;;;;;;5090332;28;20488;-77
2024/01/02 12:55:08;;;;;;;33.50;31.30;;;;;;;;;;5090607;28;20452;-77
2024/01/02 12:57:37;;;;;;;34.97;32.77;;;;;;;;;;5085413;28;20462;-77
2024/01/02 13:00:05;;;;;;;35.40;33.00;;;;;;;;;;5090095;28;20465;-76
2024/01/02 13:02:36;;;;;;;35.43;33.33;;;;;;;;;;5091279;28;20408;-77
2024/01/02 13:05:03;;;;;;;35.97;33.70;;;;;;;;;;5091765;28;20464;-77
2024/01/02 13:07:30;;;;;;;35.03;32.83;;;;;;;;;;5074284;28;20481;-77
2024/01/02 13:09:59;;;;;;;35.03;32.77;;;;;;;;;;5071113;28;20444;-77
2024/01/02 13:12:28;;;;;;;34.03;31.93;;;;;;;;;;5070559;28;20474;-76
2024/01/02 13:14:55;;;;;;;32.57;30.57;;;;;;;;;;5071523;28;20499;-77
2024/01/02 13:17:23;;;;;;;34.47;32.37;;;;;;;;;;5070921;28;20462;-77
2024/01/02 13:19:50;;;;;;;34.23;32.20;;;;;;;;;;5070348;28;20466;-76
2024/01/02 13:22:21;;;;;;;34.73;32.60;;;;;;;;;;5070304;28;20495;-77
2024/01/02 13:24:49;;;;;;;34.30;32.20;;;;;;;;;;5072527;28;20426;-77
2024/01/02 13:27:16;;;;;;;34.07;31.97;;;;;;;;;;5071111;28;20469;-77
2024/01/02 13:29:48;;;;;;;32.90;31.00;;;;;;;;;;5070838;28;20473;-77
2024/01/02 13:32:15;;;;;;;34.73;32.73;;;;;;;;;;5070458;28;20523;-77
2024/01/02 13:34:42;;;;;;;34.90;32.90;;;;;;;;;;5071209;28;20471;-77
2024/01/02 13:37:22;;;;;;;36.40;34.40;;;;;;;;;;5070758;28;20974;-75
2024/01/02 13:39:49;;;;;;;35.10;33.17;;;;;;;;;;5071214;28;20468;-75
2024/01/02 13:42:24;;;;;;;36.50;34.50;;;;;;;;;;5070510;28;20502;-76
2024/01/02 13:44:53;;;;;;;35.53;33.53;;;;;;;;;;5071287;28;20404;-75
2024/01/02 13:47:29;;;;;;;35.43;33.43;;;;;;;;;;5070801;28;20441;-76
2024/01/02 13:49:56;;;;;;;35.53;33.63;;;;;;;;;;5069930;28;21117;-75
2024/01/02 13:52:24;;;;;;;37.17;35.07;;;;;;;;;;5070198;28;20464;-77
2024/01/02 13:54:52;;;;;;;35.90;33.90;;;;;;;;;;5070567;28;20445;-76
2024/01/02 13:57:25;;;;;;;39.37;37.23;;;;;;;;;;5070611;28;20466;-75
2024/01/02 13:59:53;;;;;;;40.10;37.90;;;;;;;;;;5070017;28;20469;-76
2024/01/02 14:02:23;;;;;;;40.47;38.27;;;;;;;;;;5074151;28;20448;-76
2024/01/02 14:04:56;;;;;;;37.83;35.73;;;;;;;;;;5090703;28;20448;-76
2024/01/02 14:07:25;;;;;;;37.67;35.57;;;;;;;;;;5090608;28;20542;-76
2024/01/02 14:09:52;;;;;;;42.27;39.97;;;;;;;;;;5082707;28;20460;-82
2024/01/02 14:12:19;;;;;;;40.67;38.37;;;;;;;;;;5084639;28;20519;-82
2024/01/02 14:14:48;;;;;;;43.73;41.33;;;;;;;;;;5081302;28;20443;-81
2024/01/02 14:17:19;;;;;;;43.67;41.27;;;;;;;;;;5076498;28;20469;-82
2024/01/02 14:19:48;;;;;;;46.73;44.23;;;;;;;;;;5076333;28;20452;-82
2024/01/02 14:22:25;;;;;;;46.20;43.80;;;;;;;;;;5071083;28;20424;-76